sensor_id;sensor_type;location;lat;lon;timestamp;P1;durP1;ratioP1;P2;durP2;ratioP2
24084;SDS011;12268;52.110;5.548;2024-02-14T00:01:55;8.75;;;6.40;;
24084;SDS011;12268;52.110;5.548;2024-02-14T00:04:20;11.30;;;6.32;;
24084;SDS011;12268;52.110;5.548;2024-02-14T00:06:46;10.80;;;6.07;;
24084;SDS011;12268;52.110;5.548;2024-02-14T00:09:12;9.30;;;6.70;;
24084;SDS011;12268;52.110;5.548;2024-02-14T00:11:38;11.05;;;6.43;;
24084;SDS011;12268;52.110;5.548;2024-02-14T00:14:03;9.93;;;6.80;;
24084;SDS011;12268;52.110;5.548;2024-02-14T00:16:29;10.10;;;6.78;;
24084;SDS011;12268;52.110;5.548;2024-02-14T00:18:57;9.73;;;7.40;;
24084;SDS011;12268;52.110;5.548;2024-02-14T00:21:23;8.82;;;6.50;;
24084;SDS011;12268;52.110;5.548;2024-02-14T00:23:49;9.32;;;6.43;;
24084;SDS011;12268;52.110;5.548;2024-02-14T00:26:15;7.93;;;6.25;;
24084;SDS011;12268;52.110;5.548;2024-02-14T00:28:41;8.32;;;5.40;;
24084;SDS011;12268;52.110;5.548;2024-02-14T00:31:07;10.65;;;6.88;;
24084;SDS011;12268;52.110;5.548;2024-02-14T00:33:33;8.27;;;6.78;;
24084;SDS011;12268;52.110;5.548;2024-02-14T00:35:58;11.25;;;7.43;;
24084;SDS011;12268;52.110;5.548;2024-02-14T00:38:24;9.95;;;6.43;;
24084;SDS011;12268;52.110;5.548;2024-02-14T00:40:49;12.48;;;6.90;;
24084;SDS011;12268;52.110;5.548;2024-02-14T00:43:15;10.13;;;7.10;;
24084;SDS011;12268;52.110;5.548;2024-02-14T00:45:40;9.63;;;6.53;;
24084;SDS011;12268;52.110;5.548;2024-02-14T00:48:06;8.68;;;6.38;;
24084;SDS011;12268;52.110;5.548;2024-02-14T00:50:33;11.07;;;7.75;;
24084;SDS011;12268;52.110;5.548;2024-02-14T00:52:59;13.35;;;8.00;;
24084;SDS011;12268;52.110;5.548;2024-02-14T00:55:25;11.15;;;8.35;;
24084;SDS011;12268;52.110;5.548;2024-02-14T00:57:50;11.38;;;8.32;;
24084;SDS011;12268;52.110;5.548;2024-02-14T01:00:16;12.40;;;9.02;;
24084;SDS011;12268;52.110;5.548;2024-02-14T01:02:42;15.75;;;9.07;;
24084;SDS011;12268;52.110;5.548;2024-02-14T01:05:08;14.82;;;10.07;;
24084;SDS011;12268;52.110;5.548;2024-02-14T01:07:34;16.10;;;8.73;;
24084;SDS011;12268;52.110;5.548;2024-02-14T01:10:00;15.68;;;10.68;;
24084;SDS011;12268;52.110;5.548;2024-02-14T01:12:26;15.65;;;11.52;;
24084;SDS011;12268;52.110;5.548;2024-02-14T01:14:51;17.65;;;12.00;;
24084;SDS011;12268;52.110;5.548;2024-02-14T01:17:17;15.30;;;11.30;;
24084;SDS011;12268;52.110;5.548;2024-02-14T01:19:42;14.98;;;11.68;;
24084;SDS011;12268;52.110;5.548;2024-02-14T01:22:08;17.55;;;11.50;;
24084;SDS011;12268;52.110;5.548;2024-02-14T01:24:34;16.17;;;11.40;;
24084;SDS011;12268;52.110;5.548;2024-02-14T01:27:00;18.77;;;12.02;;
24084;SDS011;12268;52.110;5.548;2024-02-14T01:29:25;17.80;;;10.60;;
24084;SDS011;12268;52.110;5.548;2024-02-14T01:31:52;15.52;;;10.45;;
24084;SDS011;12268;52.110;5.548;2024-02-14T01:34:17;13.48;;;9.40;;
24084;SDS011;12268;52.110;5.548;2024-02-14T01:36:43;14.75;;;11.02;;
24084;SDS011;12268;52.110;5.548;2024-02-14T01:39:08;18.40;;;11.85;;
24084;SDS011;12268;52.110;5.548;2024-02-14T01:41:36;18.08;;;12.32;;
24084;SDS011;12268;52.110;5.548;2024-02-14T01:44:03;19.10;;;12.35;;
24084;SDS011;12268;52.110;5.548;2024-02-14T01:46:29;15.95;;;10.77;;
24084;SDS011;12268;52.110;5.548;2024-02-14T01:48:55;17.17;;;12.63;;
24084;SDS011;12268;52.110;5.548;2024-02-14T01:51:21;16.83;;;11.98;;
24084;SDS011;12268;52.110;5.548;2024-02-14T01:53:51;18.43;;;13.27;;
24084;SDS011;12268;52.110;5.548;2024-02-14T01:56:19;19.02;;;13.32;;
24084;SDS011;12268;52.110;5.548;2024-02-14T01:58:45;20.02;;;12.38;;
24084;SDS011;12268;52.110;5.548;2024-02-14T02:01:11;21.98;;;14.30;;
24084;SDS011;12268;52.110;5.548;2024-02-14T02:03:37;17.90;;;12.85;;
24084;SDS011;12268;52.110;5.548;2024-02-14T02:06:04;16.95;;;11.25;;
24084;SDS011;12268;52.110;5.548;2024-02-14T02:08:30;23.73;;;12.10;;
24084;SDS011;12268;52.110;5.548;2024-02-14T02:10:57;20.38;;;12.77;;
24084;SDS011;12268;52.110;5.548;2024-02-14T02:13:23;22.90;;;14.05;;
24084;SDS011;12268;52.110;5.548;2024-02-14T02:15:51;18.80;;;12.88;;
24084;SDS011;12268;52.110;5.548;2024-02-14T02:18:18;18.08;;;12.32;;
24084;SDS011;12268;52.110;5.548;2024-02-14T02:20:44;21.60;;;13.98;;
24084;SDS011;12268;52.110;5.548;2024-02-14T02:23:13;18.77;;;13.00;;
24084;SDS011;12268;52.110;5.548;2024-02-14T02:25:39;19.55;;;13.65;;
24084;SDS011;12268;52.110;5.548;2024-02-14T02:28:08;23.25;;;15.13;;
24084;SDS011;12268;52.110;5.548;2024-02-14T02:30:37;21.42;;;13.40;;
24084;SDS011;12268;52.110;5.548;2024-02-14T02:33:03;21.15;;;13.73;;
24084;SDS011;12268;52.110;5.548;2024-02-14T02:35:30;21.40;;;14.18;;
24084;SDS011;12268;52.110;5.548;2024-02-14T02:37:55;16.67;;;12.00;;
24084;SDS011;12268;52.110;5.548;2024-02-14T02:40:22;25.90;;;14.57;;
24084;SDS011;12268;52.110;5.548;2024-02-14T02:42:48;19.05;;;14.00;;
24084;SDS011;12268;52.110;5.548;2024-02-14T02:45:15;19.92;;;13.80;;
24084;SDS011;12268;52.110;5.548;2024-02-14T02:47:41;20.20;;;13.75;;
24084;SDS011;12268;52.110;5.548;2024-02-14T02:50:07;24.08;;;14.38;;
24084;SDS011;12268;52.110;5.548;2024-02-14T02:52:33;17.52;;;13.02;;
24084;SDS011;12268;52.110;5.548;2024-02-14T02:54:59;23.42;;;15.85;;
24084;SDS011;12268;52.110;5.548;2024-02-14T02:57:26;21.52;;;15.27;;
24084;SDS011;12268;52.110;5.548;2024-02-14T02:59:52;24.23;;;14.45;;
24084;SDS011;12268;52.110;5.548;2024-02-14T03:02:19;26.50;;;14.98;;
24084;SDS011;12268;52.110;5.548;2024-02-14T03:04:45;22.00;;;15.32;;
24084;SDS011;12268;52.110;5.548;2024-02-14T03:07:11;21.10;;;13.82;;
24084;SDS011;12268;52.110;5.548;2024-02-14T03:09:37;24.27;;;14.48;;
24084;SDS011;12268;52.110;5.548;2024-02-14T03:12:03;21.73;;;14.70;;
24084;SDS011;12268;52.110;5.548;2024-02-14T03:14:32;20.42;;;12.35;;
24084;SDS011;12268;52.110;5.548;2024-02-14T03:17:04;12.48;;;8.75;;
24084;SDS011;12268;52.110;5.548;2024-02-14T03:19:30;18.38;;;12.43;;
24084;SDS011;12268;52.110;5.548;2024-02-14T03:21:56;19.60;;;12.30;;
24084;SDS011;12268;52.110;5.548;2024-02-14T03:24:22;21.83;;;13.43;;
24084;SDS011;12268;52.110;5.548;2024-02-14T03:26:51;22.08;;;13.18;;
24084;SDS011;12268;52.110;5.548;2024-02-14T03:29:18;24.60;;;14.85;;
24084;SDS011;12268;52.110;5.548;2024-02-14T03:31:44;26.00;;;16.55;;
24084;SDS011;12268;52.110;5.548;2024-02-14T03:34:11;27.38;;;16.48;;
24084;SDS011;12268;52.110;5.548;2024-02-14T03:36:37;21.55;;;14.82;;
24084;SDS011;12268;52.110;5.548;2024-02-14T03:39:03;28.67;;;17.67;;
24084;SDS011;12268;52.110;5.548;2024-02-14T03:41:30;31.00;;;19.98;;
24084;SDS011;12268;52.110;5.548;2024-02-14T03:43:56;24.75;;;15.77;;
24084;SDS011;12268;52.110;5.548;2024-02-14T03:46:25;34.50;;;21.23;;
24084;SDS011;12268;52.110;5.548;2024-02-14T03:48:51;28.77;;;18.05;;
24084;SDS011;12268;52.110;5.548;2024-02-14T03:51:17;34.85;;;20.15;;
24084;SDS011;12268;52.110;5.548;2024-02-14T03:53:44;36.97;;;21.20;;
24084;SDS011;12268;52.110;5.548;2024-02-14T03:56:10;31.25;;;17.83;;
24084;SDS011;12268;52.110;5.548;2024-02-14T03:58:37;31.90;;;18.48;;
24084;SDS011;12268;52.110;5.548;2024-02-14T04:01:04;34.40;;;20.67;;
24084;SDS011;12268;52.110;5.548;2024-02-14T04:03:29;39.05;;;23.08;;
24084;SDS011;12268;52.110;5.548;2024-02-14T04:05:55;27.85;;;16.75;;
24084;SDS011;12268;52.110;5.548;2024-02-14T04:08:21;26.48;;;15.60;;
24084;SDS011;12268;52.110;5.548;2024-02-14T04:10:48;18.00;;;9.75;;
24084;SDS011;12268;52.110;5.548;2024-02-14T04:13:19;26.92;;;14.70;;
24084;SDS011;12268;52.110;5.548;2024-02-14T04:15:45;33.45;;;17.27;;
24084;SDS011;12268;52.110;5.548;2024-02-14T04:18:12;21.20;;;12.48;;
24084;SDS011;12268;52.110;5.548;2024-02-14T04:20:38;19.63;;;11.02;;
24084;SDS011;12268;52.110;5.548;2024-02-14T04:23:03;31.83;;;15.38;;
24084;SDS011;12268;52.110;5.548;2024-02-14T04:25:31;34.90;;;17.42;;
24084;SDS011;12268;52.110;5.548;2024-02-14T04:27:57;32.20;;;18.02;;
24084;SDS011;12268;52.110;5.548;2024-02-14T04:30:24;30.20;;;14.85;;
24084;SDS011;12268;52.110;5.548;2024-02-14T04:32:50;31.42;;;18.05;;
24084;SDS011;12268;52.110;5.548;2024-02-14T04:35:16;42.25;;;19.90;;
24084;SDS011;12268;52.110;5.548;2024-02-14T04:37:42;23.27;;;15.63;;
24084;SDS011;12268;52.110;5.548;2024-02-14T04:40:11;44.25;;;23.45;;
24084;SDS011;12268;52.110;5.548;2024-02-14T04:42:37;31.52;;;16.13;;
24084;SDS011;12268;52.110;5.548;2024-02-14T04:45:03;41.83;;;21.15;;
24084;SDS011;12268;52.110;5.548;2024-02-14T04:47:29;33.30;;;18.77;;
24084;SDS011;12268;52.110;5.548;2024-02-14T04:49:55;42.17;;;23.05;;
24084;SDS011;12268;52.110;5.548;2024-02-14T04:52:20;49.58;;;24.30;;
24084;SDS011;12268;52.110;5.548;2024-02-14T04:54:46;38.28;;;20.65;;
24084;SDS011;12268;52.110;5.548;2024-02-14T04:57:12;13.73;;;7.38;;
24084;SDS011;12268;52.110;5.548;2024-02-14T04:59:38;37.97;;;20.30;;
24084;SDS011;12268;52.110;5.548;2024-02-14T05:02:03;38.17;;;21.08;;
24084;SDS011;12268;52.110;5.548;2024-02-14T05:04:29;34.78;;;21.10;;
24084;SDS011;12268;52.110;5.548;2024-02-14T05:06:54;36.78;;;20.08;;
24084;SDS011;12268;52.110;5.548;2024-02-14T05:09:20;36.90;;;19.40;;
24084;SDS011;12268;52.110;5.548;2024-02-14T05:11:46;38.85;;;22.05;;
24084;SDS011;12268;52.110;5.548;2024-02-14T05:14:11;35.00;;;16.92;;
24084;SDS011;12268;52.110;5.548;2024-02-14T05:16:37;36.53;;;18.88;;
24084;SDS011;12268;52.110;5.548;2024-02-14T05:19:02;37.50;;;20.73;;
24084;SDS011;12268;52.110;5.548;2024-02-14T05:21:28;33.38;;;18.45;;
24084;SDS011;12268;52.110;5.548;2024-02-14T05:23:54;40.65;;;21.10;;
24084;SDS011;12268;52.110;5.548;2024-02-14T05:26:19;37.30;;;21.83;;
24084;SDS011;12268;52.110;5.548;2024-02-14T05:28:45;44.58;;;25.17;;
24084;SDS011;12268;52.110;5.548;2024-02-14T05:31:11;34.83;;;19.15;;
24084;SDS011;12268;52.110;5.548;2024-02-14T05:33:37;39.67;;;22.10;;
24084;SDS011;12268;52.110;5.548;2024-02-14T05:36:02;38.67;;;22.45;;
24084;SDS011;12268;52.110;5.548;2024-02-14T05:38:28;39.33;;;21.17;;
24084;SDS011;12268;52.110;5.548;2024-02-14T05:40:54;27.77;;;15.52;;
24084;SDS011;12268;52.110;5.548;2024-02-14T05:43:22;38.42;;;19.35;;
24084;SDS011;12268;52.110;5.548;2024-02-14T05:45:47;37.53;;;20.40;;
24084;SDS011;12268;52.110;5.548;2024-02-14T05:48:13;40.75;;;23.77;;
24084;SDS011;12268;52.110;5.548;2024-02-14T05:50:39;26.63;;;12.80;;
24084;SDS011;12268;52.110;5.548;2024-02-14T05:53:05;35.67;;;20.90;;
24084;SDS011;12268;52.110;5.548;2024-02-14T05:55:31;43.45;;;23.60;;
24084;SDS011;12268;52.110;5.548;2024-02-14T05:57:57;38.80;;;22.25;;
24084;SDS011;12268;52.110;5.548;2024-02-14T06:00:24;44.03;;;24.17;;
24084;SDS011;12268;52.110;5.548;2024-02-14T06:02:50;37.25;;;21.88;;
24084;SDS011;12268;52.110;5.548;2024-02-14T06:05:16;37.88;;;22.35;;
24084;SDS011;12268;52.110;5.548;2024-02-14T06:07:41;37.95;;;23.25;;
24084;SDS011;12268;52.110;5.548;2024-02-14T06:10:10;42.28;;;24.80;;
24084;SDS011;12268;52.110;5.548;2024-02-14T06:12:36;39.97;;;24.17;;
24084;SDS011;12268;52.110;5.548;2024-02-14T06:15:02;36.90;;;22.13;;
24084;SDS011;12268;52.110;5.548;2024-02-14T06:17:28;41.55;;;24.77;;
24084;SDS011;12268;52.110;5.548;2024-02-14T06:19:54;39.72;;;24.45;;
24084;SDS011;12268;52.110;5.548;2024-02-14T06:22:19;43.03;;;25.88;;
24084;SDS011;12268;52.110;5.548;2024-02-14T06:24:46;35.67;;;20.83;;
24084;SDS011;12268;52.110;5.548;2024-02-14T06:27:13;44.35;;;22.58;;
24084;SDS011;12268;52.110;5.548;2024-02-14T06:29:43;42.00;;;22.63;;
24084;SDS011;12268;52.110;5.548;2024-02-14T06:32:08;44.70;;;24.30;;
24084;SDS011;12268;52.110;5.548;2024-02-14T06:34:34;35.03;;;21.25;;
24084;SDS011;12268;52.110;5.548;2024-02-14T06:37:00;37.38;;;21.83;;
24084;SDS011;12268;52.110;5.548;2024-02-14T06:39:26;37.67;;;22.77;;
24084;SDS011;12268;52.110;5.548;2024-02-14T06:41:52;38.72;;;22.63;;
24084;SDS011;12268;52.110;5.548;2024-02-14T06:44:17;35.65;;;22.20;;
24084;SDS011;12268;52.110;5.548;2024-02-14T06:46:43;35.00;;;20.67;;
24084;SDS011;12268;52.110;5.548;2024-02-14T06:49:09;36.83;;;21.30;;
24084;SDS011;12268;52.110;5.548;2024-02-14T06:51:35;33.67;;;19.27;;
24084;SDS011;12268;52.110;5.548;2024-02-14T06:54:00;35.13;;;20.90;;
24084;SDS011;12268;52.110;5.548;2024-02-14T06:56:26;35.13;;;20.30;;
24084;SDS011;12268;52.110;5.548;2024-02-14T06:58:51;38.60;;;20.73;;
24084;SDS011;12268;52.110;5.548;2024-02-14T07:01:24;37.65;;;20.40;;
24084;SDS011;12268;52.110;5.548;2024-02-14T07:03:50;33.00;;;20.05;;
24084;SDS011;12268;52.110;5.548;2024-02-14T07:06:16;40.22;;;23.00;;
24084;SDS011;12268;52.110;5.548;2024-02-14T07:08:43;39.03;;;21.67;;
24084;SDS011;12268;52.110;5.548;2024-02-14T07:11:08;42.20;;;23.95;;
24084;SDS011;12268;52.110;5.548;2024-02-14T07:13:34;36.72;;;21.88;;
24084;SDS011;12268;52.110;5.548;2024-02-14T07:16:00;46.90;;;25.48;;
24084;SDS011;12268;52.110;5.548;2024-02-14T07:18:26;43.95;;;25.42;;
24084;SDS011;12268;52.110;5.548;2024-02-14T07:20:51;42.28;;;22.42;;
24084;SDS011;12268;52.110;5.548;2024-02-14T07:23:18;47.17;;;26.00;;
24084;SDS011;12268;52.110;5.548;2024-02-14T07:25:45;42.80;;;23.83;;
24084;SDS011;12268;52.110;5.548;2024-02-14T07:28:11;44.15;;;24.08;;
24084;SDS011;12268;52.110;5.548;2024-02-14T07:30:37;50.30;;;28.30;;
24084;SDS011;12268;52.110;5.548;2024-02-14T07:33:02;46.75;;;25.48;;
24084;SDS011;12268;52.110;5.548;2024-02-14T07:35:28;49.53;;;27.73;;
24084;SDS011;12268;52.110;5.548;2024-02-14T07:37:54;52.83;;;27.73;;
24084;SDS011;12268;52.110;5.548;2024-02-14T07:40:21;50.88;;;26.48;;
24084;SDS011;12268;52.110;5.548;2024-02-14T07:42:47;44.15;;;23.48;;
24084;SDS011;12268;52.110;5.548;2024-02-14T07:45:13;41.47;;;22.27;;
24084;SDS011;12268;52.110;5.548;2024-02-14T07:47:39;46.92;;;23.92;;
24084;SDS011;12268;52.110;5.548;2024-02-14T07:50:05;50.10;;;27.42;;
24084;SDS011;12268;52.110;5.548;2024-02-14T07:52:32;51.58;;;26.88;;
24084;SDS011;12268;52.110;5.548;2024-02-14T07:54:58;54.80;;;29.50;;
24084;SDS011;12268;52.110;5.548;2024-02-14T07:57:24;56.13;;;29.15;;
24084;SDS011;12268;52.110;5.548;2024-02-14T07:59:52;53.10;;;28.42;;
24084;SDS011;12268;52.110;5.548;2024-02-14T08:02:19;53.90;;;29.50;;
24084;SDS011;12268;52.110;5.548;2024-02-14T08:04:45;47.92;;;26.55;;
24084;SDS011;12268;52.110;5.548;2024-02-14T08:07:10;55.25;;;27.30;;
24084;SDS011;12268;52.110;5.548;2024-02-14T08:09:36;51.90;;;27.73;;
24084;SDS011;12268;52.110;5.548;2024-02-14T08:12:04;51.20;;;28.15;;
24084;SDS011;12268;52.110;5.548;2024-02-14T08:14:30;52.38;;;28.70;;
24084;SDS011;12268;52.110;5.548;2024-02-14T08:16:56;45.05;;;27.08;;
24084;SDS011;12268;52.110;5.548;2024-02-14T08:19:22;49.85;;;26.20;;
24084;SDS011;12268;52.110;5.548;2024-02-14T08:21:48;43.92;;;24.63;;
24084;SDS011;12268;52.110;5.548;2024-02-14T08:24:13;51.38;;;28.40;;
24084;SDS011;12268;52.110;5.548;2024-02-14T08:26:39;49.60;;;26.42;;
24084;SDS011;12268;52.110;5.548;2024-02-14T08:29:04;48.63;;;27.67;;
24084;SDS011;12268;52.110;5.548;2024-02-14T08:31:30;51.13;;;27.92;;
24084;SDS011;12268;52.110;5.548;2024-02-14T08:33:57;54.92;;;27.08;;
24084;SDS011;12268;52.110;5.548;2024-02-14T08:36:23;53.63;;;28.58;;
24084;SDS011;12268;52.110;5.548;2024-02-14T08:38:50;53.63;;;27.45;;
24084;SDS011;12268;52.110;5.548;2024-02-14T08:41:15;59.22;;;29.58;;
24084;SDS011;12268;52.110;5.548;2024-02-14T08:43:41;50.08;;;28.73;;
24084;SDS011;12268;52.110;5.548;2024-02-14T08:46:10;63.00;;;29.15;;
24084;SDS011;12268;52.110;5.548;2024-02-14T08:48:36;57.10;;;28.00;;
24084;SDS011;12268;52.110;5.548;2024-02-14T08:51:06;52.42;;;27.13;;
24084;SDS011;12268;52.110;5.548;2024-02-14T08:53:34;58.55;;;30.20;;
24084;SDS011;12268;52.110;5.548;2024-02-14T08:56:01;54.28;;;27.40;;
24084;SDS011;12268;52.110;5.548;2024-02-14T08:58:26;49.33;;;27.55;;
24084;SDS011;12268;52.110;5.548;2024-02-14T09:00:52;49.55;;;24.90;;
24084;SDS011;12268;52.110;5.548;2024-02-14T09:03:18;44.80;;;25.73;;
24084;SDS011;12268;52.110;5.548;2024-02-14T09:05:44;41.60;;;23.33;;
24084;SDS011;12268;52.110;5.548;2024-02-14T09:08:11;40.08;;;23.48;;
24084;SDS011;12268;52.110;5.548;2024-02-14T09:10:37;41.85;;;23.23;;
24084;SDS011;12268;52.110;5.548;2024-02-14T09:13:03;42.35;;;22.13;;
24084;SDS011;12268;52.110;5.548;2024-02-14T09:15:29;42.25;;;23.30;;
24084;SDS011;12268;52.110;5.548;2024-02-14T09:17:56;41.47;;;22.30;;
24084;SDS011;12268;52.110;5.548;2024-02-14T09:20:22;39.28;;;21.60;;
24084;SDS011;12268;52.110;5.548;2024-02-14T09:22:48;38.72;;;22.75;;
24084;SDS011;12268;52.110;5.548;2024-02-14T09:25:13;35.03;;;19.80;;
24084;SDS011;12268;52.110;5.548;2024-02-14T09:27:39;40.45;;;23.48;;
24084;SDS011;12268;52.110;5.548;2024-02-14T09:30:06;36.58;;;18.95;;
24084;SDS011;12268;52.110;5.548;2024-02-14T09:32:32;37.42;;;21.50;;
24084;SDS011;12268;52.110;5.548;2024-02-14T09:34:59;32.35;;;19.10;;
24084;SDS011;12268;52.110;5.548;2024-02-14T09:37:25;39.58;;;21.98;;
24084;SDS011;12268;52.110;5.548;2024-02-14T09:39:51;39.92;;;23.20;;
24084;SDS011;12268;52.110;5.548;2024-02-14T09:42:18;37.78;;;21.98;;
24084;SDS011;12268;52.110;5.548;2024-02-14T09:44:49;37.00;;;21.45;;
24084;SDS011;12268;52.110;5.548;2024-02-14T09:47:17;40.58;;;20.60;;
24084;SDS011;12268;52.110;5.548;2024-02-14T09:49:44;36.75;;;20.75;;
24084;SDS011;12268;52.110;5.548;2024-02-14T09:52:11;37.45;;;20.25;;
24084;SDS011;12268;52.110;5.548;2024-02-14T09:54:38;32.78;;;18.02;;
24084;SDS011;12268;52.110;5.548;2024-02-14T09:57:04;37.53;;;21.23;;
24084;SDS011;12268;52.110;5.548;2024-02-14T09:59:31;41.35;;;23.33;;
24084;SDS011;12268;52.110;5.548;2024-02-14T10:01:57;38.38;;;20.85;;
24084;SDS011;12268;52.110;5.548;2024-02-14T10:04:23;45.58;;;24.77;;
24084;SDS011;12268;52.110;5.548;2024-02-14T10:06:50;52.05;;;28.38;;
24084;SDS011;12268;52.110;5.548;2024-02-14T10:09:22;52.55;;;28.92;;
24084;SDS011;12268;52.110;5.548;2024-02-14T10:11:48;46.65;;;26.85;;
24084;SDS011;12268;52.110;5.548;2024-02-14T10:14:14;51.28;;;28.88;;
24084;SDS011;12268;52.110;5.548;2024-02-14T10:16:40;47.67;;;26.95;;
24084;SDS011;12268;52.110;5.548;2024-02-14T10:19:14;57.83;;;29.48;;
24084;SDS011;12268;52.110;5.548;2024-02-14T10:21:43;45.00;;;25.77;;
24084;SDS011;12268;52.110;5.548;2024-02-14T10:24:19;55.97;;;29.77;;
24084;SDS011;12268;52.110;5.548;2024-02-14T10:26:45;45.45;;;27.30;;
24084;SDS011;12268;52.110;5.548;2024-02-14T10:29:11;48.35;;;28.08;;
24084;SDS011;12268;52.110;5.548;2024-02-14T10:31:36;49.65;;;26.92;;
24084;SDS011;12268;52.110;5.548;2024-02-14T10:34:02;43.30;;;24.45;;
24084;SDS011;12268;52.110;5.548;2024-02-14T10:36:31;46.17;;;25.33;;
24084;SDS011;12268;52.110;5.548;2024-02-14T10:38:59;51.20;;;25.98;;
24084;SDS011;12268;52.110;5.548;2024-02-14T10:41:29;46.53;;;24.27;;
24084;SDS011;12268;52.110;5.548;2024-02-14T10:44:03;46.97;;;25.48;;
24084;SDS011;12268;52.110;5.548;2024-02-14T10:46:31;44.15;;;24.60;;
24084;SDS011;12268;52.110;5.548;2024-02-14T10:49:02;43.78;;;24.27;;
24084;SDS011;12268;52.110;5.548;2024-02-14T10:51:32;37.35;;;20.23;;
24084;SDS011;12268;52.110;5.548;2024-02-14T10:54:12;40.95;;;24.75;;
24084;SDS011;12268;52.110;5.548;2024-02-14T10:56:41;45.95;;;24.45;;
24084;SDS011;12268;52.110;5.548;2024-02-14T10:59:10;38.20;;;20.20;;
24084;SDS011;12268;52.110;5.548;2024-02-14T11:01:40;43.67;;;25.60;;
24084;SDS011;12268;52.110;5.548;2024-02-14T11:04:07;41.67;;;24.50;;
24084;SDS011;12268;52.110;5.548;2024-02-14T11:06:43;39.33;;;21.15;;
24084;SDS011;12268;52.110;5.548;2024-02-14T11:09:13;44.38;;;23.35;;
24084;SDS011;12268;52.110;5.548;2024-02-14T11:11:41;35.63;;;23.10;;
24084;SDS011;12268;52.110;5.548;2024-02-14T11:14:08;41.45;;;22.83;;
24084;SDS011;12268;52.110;5.548;2024-02-14T11:16:36;37.70;;;23.10;;
24084;SDS011;12268;52.110;5.548;2024-02-14T11:19:06;34.70;;;21.92;;
24084;SDS011;12268;52.110;5.548;2024-02-14T11:21:36;37.65;;;23.55;;
24084;SDS011;12268;52.110;5.548;2024-02-14T11:24:07;32.30;;;21.42;;
24084;SDS011;12268;52.110;5.548;2024-02-14T11:26:47;33.75;;;20.38;;
24084;SDS011;12268;52.110;5.548;2024-02-14T11:29:17;31.83;;;20.20;;
24084;SDS011;12268;52.110;5.548;2024-02-14T11:31:44;33.47;;;21.20;;
24084;SDS011;12268;52.110;5.548;2024-02-14T11:34:13;32.63;;;20.50;;
24084;SDS011;12268;52.110;5.548;2024-02-14T11:36:41;34.30;;;20.75;;
24084;SDS011;12268;52.110;5.548;2024-02-14T11:39:07;31.88;;;20.88;;
24084;SDS011;12268;52.110;5.548;2024-02-14T11:41:33;31.70;;;19.17;;
24084;SDS011;12268;52.110;5.548;2024-02-14T11:44:03;34.03;;;19.10;;
24084;SDS011;12268;52.110;5.548;2024-02-14T11:46:32;32.22;;;20.27;;
24084;SDS011;12268;52.110;5.548;2024-02-14T11:48:59;30.55;;;17.92;;
24084;SDS011;12268;52.110;5.548;2024-02-14T11:51:29;32.58;;;18.92;;
24084;SDS011;12268;52.110;5.548;2024-02-14T11:53:57;35.05;;;20.15;;
24084;SDS011;12268;52.110;5.548;2024-02-14T11:56:35;30.45;;;19.63;;
24084;SDS011;12268;52.110;5.548;2024-02-14T11:59:02;33.42;;;19.33;;
24084;SDS011;12268;52.110;5.548;2024-02-14T12:01:36;33.05;;;19.50;;
24084;SDS011;12268;52.110;5.548;2024-02-14T12:04:04;32.20;;;19.55;;
24084;SDS011;12268;52.110;5.548;2024-02-14T12:06:34;32.30;;;18.15;;
24084;SDS011;12268;52.110;5.548;2024-02-14T12:09:04;28.55;;;17.98;;
24084;SDS011;12268;52.110;5.548;2024-02-14T12:11:31;25.15;;;16.98;;
24084;SDS011;12268;52.110;5.548;2024-02-14T12:14:05;28.77;;;16.50;;
24084;SDS011;12268;52.110;5.548;2024-02-14T12:16:31;28.33;;;15.90;;
24084;SDS011;12268;52.110;5.548;2024-02-14T12:19:04;32.50;;;16.73;;
24084;SDS011;12268;52.110;5.548;2024-02-14T12:21:37;25.63;;;14.40;;
24084;SDS011;12268;52.110;5.548;2024-02-14T12:24:07;29.85;;;15.55;;
24084;SDS011;12268;52.110;5.548;2024-02-14T12:26:35;27.10;;;15.73;;
24084;SDS011;12268;52.110;5.548;2024-02-14T12:29:02;23.75;;;14.85;;
24084;SDS011;12268;52.110;5.548;2024-02-14T12:31:32;24.17;;;16.17;;
24084;SDS011;12268;52.110;5.548;2024-02-14T12:33:58;23.13;;;13.30;;
24084;SDS011;12268;52.110;5.548;2024-02-14T12:36:27;32.13;;;15.15;;
24084;SDS011;12268;52.110;5.548;2024-02-14T12:38:59;23.38;;;14.05;;
24084;SDS011;12268;52.110;5.548;2024-02-14T12:41:27;21.45;;;11.90;;
24084;SDS011;12268;52.110;5.548;2024-02-14T12:43:54;20.80;;;13.80;;
24084;SDS011;12268;52.110;5.548;2024-02-14T12:46:20;21.75;;;13.90;;
24084;SDS011;12268;52.110;5.548;2024-02-14T12:48:46;20.23;;;12.77;;
24084;SDS011;12268;52.110;5.548;2024-02-14T12:51:13;19.75;;;13.85;;
24084;SDS011;12268;52.110;5.548;2024-02-14T12:53:39;19.83;;;13.70;;
24084;SDS011;12268;52.110;5.548;2024-02-14T12:56:05;24.63;;;13.45;;
24084;SDS011;12268;52.110;5.548;2024-02-14T12:58:31;22.13;;;13.93;;
24084;SDS011;12268;52.110;5.548;2024-02-14T13:00:57;23.85;;;13.77;;
24084;SDS011;12268;52.110;5.548;2024-02-14T13:03:23;21.42;;;11.93;;
24084;SDS011;12268;52.110;5.548;2024-02-14T13:05:49;19.52;;;12.73;;
24084;SDS011;12268;52.110;5.548;2024-02-14T13:08:18;19.70;;;12.43;;
24084;SDS011;12268;52.110;5.548;2024-02-14T13:10:44;17.92;;;11.65;;
24084;SDS011;12268;52.110;5.548;2024-02-14T13:13:09;16.55;;;11.77;;
24084;SDS011;12268;52.110;5.548;2024-02-14T13:15:35;16.10;;;11.43;;
24084;SDS011;12268;52.110;5.548;2024-02-14T13:18:01;16.25;;;10.50;;
24084;SDS011;12268;52.110;5.548;2024-02-14T13:20:28;20.20;;;10.75;;
24084;SDS011;12268;52.110;5.548;2024-02-14T13:22:53;15.77;;;10.10;;
24084;SDS011;12268;52.110;5.548;2024-02-14T13:25:19;14.38;;;9.45;;
24084;SDS011;12268;52.110;5.548;2024-02-14T13:27:45;15.43;;;10.27;;
24084;SDS011;12268;52.110;5.548;2024-02-14T13:30:11;16.02;;;11.00;;
24084;SDS011;12268;52.110;5.548;2024-02-14T13:32:36;15.90;;;9.38;;
24084;SDS011;12268;52.110;5.548;2024-02-14T13:35:02;16.85;;;10.00;;
24084;SDS011;12268;52.110;5.548;2024-02-14T13:37:30;13.35;;;9.00;;
24084;SDS011;12268;52.110;5.548;2024-02-14T13:39:56;12.23;;;9.35;;
24084;SDS011;12268;52.110;5.548;2024-02-14T13:42:22;15.35;;;9.68;;
24084;SDS011;12268;52.110;5.548;2024-02-14T13:44:48;14.95;;;9.93;;
24084;SDS011;12268;52.110;5.548;2024-02-14T13:47:14;10.68;;;7.72;;
24084;SDS011;12268;52.110;5.548;2024-02-14T13:49:43;13.82;;;9.00;;
24084;SDS011;12268;52.110;5.548;2024-02-14T13:52:09;15.00;;;9.45;;
24084;SDS011;12268;52.110;5.548;2024-02-14T13:54:35;14.05;;;9.40;;
24084;SDS011;12268;52.110;5.548;2024-02-14T13:57:01;12.52;;;9.15;;
24084;SDS011;12268;52.110;5.548;2024-02-14T13:59:27;17.45;;;10.43;;
24084;SDS011;12268;52.110;5.548;2024-02-14T14:01:53;12.98;;;9.48;;
24084;SDS011;12268;52.110;5.548;2024-02-14T14:04:19;18.52;;;11.20;;
24084;SDS011;12268;52.110;5.548;2024-02-14T14:06:45;15.80;;;11.15;;
24084;SDS011;12268;52.110;5.548;2024-02-14T14:09:12;18.42;;;11.45;;
24084;SDS011;12268;52.110;5.548;2024-02-14T14:11:38;18.35;;;12.85;;
24084;SDS011;12268;52.110;5.548;2024-02-14T14:14:04;19.23;;;12.88;;
24084;SDS011;12268;52.110;5.548;2024-02-14T14:16:30;20.48;;;13.45;;
24084;SDS011;12268;52.110;5.548;2024-02-14T14:18:58;22.50;;;14.93;;
24084;SDS011;12268;52.110;5.548;2024-02-14T14:21:23;21.00;;;14.65;;